^^
Your Local Weather - Clay, NY Station Historical Data
Daily Summary for January 23, 2018 Units:  English    Metric   Both
« Previous Day
Next Day »
Daily Weekly Monthly Yearly Custom
  High: Low: Average:
Temperature: 52.5 °F 32.4 °F 40.1 °F
Dew Point: 46.8 °F 29.2 °F 36.1 °F
Humidity: 94% 72% 86%
Wind Speed: 9.0mph 0.0mph 2.8mph
Wind Gust: 21.0mph - -
Wind- - South
Pressure: 29.75 in 29.43 in -
Precipitation: 0.12 in    
Historical Graphs
 
 
Tabular Data for January 23, 2018
Time Temperature Dew Point Pressure Wind Wind Speed Wind Gust Humidity Rainfall Rate (Hourly) solar
00:02 37.1 °F 35.3 °F 29.75 in ENE 2.0 mph 3.0 mph 93% 0.00 in 0 W/m2
00:08 37.2 °F 35.1 °F 29.75 in ENE 2.0 mph 3.0 mph 92% 0.00 in 0 W/m2
00:14 38.0 °F 36.2 °F 29.74 in NNE 2.0 mph 3.0 mph 93% 0.00 in 0 W/m2
00:20 36.8 °F 34.7 °F 29.74 in NNE 2.0 mph 2.0 mph 92% 0.00 in 0 W/m2
00:32 36.6 °F 34.5 °F 29.73 in ENE 2.0 mph 3.0 mph 92% 0.00 in 0 W/m2
00:44 36.9 °F 34.8 °F 29.73 in NE 2.0 mph 4.0 mph 92% 0.00 in 0 W/m2
00:50 36.8 °F 34.7 °F 29.72 in NE 1.0 mph 2.0 mph 92% 0.00 in 0 W/m2
01:04 37.5 °F 35.7 °F 29.72 in NE 1.0 mph 2.0 mph 93% 0.00 in 0 W/m2
01:10 37.1 °F 35.3 °F 29.72 in NE 2.0 mph 2.0 mph 93% 0.00 in 0 W/m2
01:16 38.0 °F 36.2 °F 29.71 in NE 1.0 mph 4.0 mph 93% 0.00 in 0 W/m2
01:22 38.2 °F 36.4 °F 29.72 in NE 1.0 mph 1.0 mph 93% 0.00 in 0 W/m2
01:28 37.9 °F 36.1 °F 29.72 in Calm   1.0 mph 93% 0.00 in 0 W/m2
01:34 38.0 °F 36.2 °F 29.72 in North 1.0 mph 2.0 mph 93% 0.00 in 0 W/m2
01:46 38.1 °F 36.3 °F 29.71 in ENE 1.0 mph 3.0 mph 93% 0.00 in 0 W/m2
01:52 38.5 °F 36.7 °F 29.71 in SE 1.0 mph 2.0 mph 93% 0.00 in 0 W/m2
01:58 38.8 °F 36.9 °F 29.71 in SE 1.0 mph 2.0 mph 93% 0.00 in 0 W/m2
02:04 39.0 °F 37.1 °F 29.71 in SE 1.0 mph 5.0 mph 93% 0.00 in 0 W/m2
02:10 40.3 °F 38.4 °F 29.70 in South 3.0 mph 3.0 mph 93% 0.00 in 0 W/m2
02:22 40.8 °F 38.7 °F 29.70 in ESE 1.0 mph 2.0 mph 92% 0.00 in 0 W/m2
02:28 41.2 °F 38.8 °F 29.70 in SE 1.0 mph 5.0 mph 91% 0.00 in 0 W/m2
02:40 45.3 °F 42.0 °F 29.69 in South 5.0 mph 6.0 mph 88% 0.00 in 0 W/m2
02:46 45.1 °F 41.2 °F 29.69 in SSE 4.0 mph 6.0 mph 86% 0.00 in 0 W/m2
02:52 46.5 °F 41.9 °F 29.69 in SE 6.0 mph 8.0 mph 84% 0.00 in 0 W/m2
02:58 46.3 °F 41.4 °F 29.69 in SE 5.0 mph 8.0 mph 83% 0.00 in 0 W/m2
03:04 46.3 °F 41.4 °F 29.68 in ESE 3.0 mph 5.0 mph 83% 0.00 in 0 W/m2
03:10 45.3 °F 40.7 °F 29.68 in SE 3.0 mph 3.0 mph 84% 0.00 in 0 W/m2
03:16 42.7 °F 37.9 °F 29.67 in East 2.0 mph 3.0 mph 83% 0.00 in 0 W/m2
03:22 41.0 °F 36.8 °F 29.66 in East 2.0 mph 3.0 mph 85% 0.00 in 0 W/m2
03:28 40.0 °F 36.2 °F 29.65 in East 2.0 mph 3.0 mph 86% 0.00 in 0 W/m2
03:34 39.9 °F 36.6 °F 29.66 in South 1.0 mph 3.0 mph 88% 0.00 in 0 W/m2
03:40 39.9 °F 36.9 °F 29.66 in NE 2.0 mph 2.0 mph 89% 0.00 in 0 W/m2
03:52 39.0 °F 36.0 °F 29.66 in ENE 1.0 mph 4.0 mph 89% 0.00 in 0 W/m2
03:58 39.0 °F 36.3 °F 29.66 in ENE 2.0 mph 4.0 mph 90% 0.00 in 0 W/m2
04:04 39.3 °F 36.6 °F 29.65 in ENE 1.0 mph 3.0 mph 90% 0.00 in 0 W/m2
04:10 39.3 °F 36.9 °F 29.65 in ENE 1.0 mph 1.0 mph 91% 0.00 in 0 W/m2
04:16 39.9 °F 37.5 °F 29.64 in ENE 1.0 mph 2.0 mph 91% 0.00 in 0 W/m2
04:22 39.6 °F 37.2 °F 29.63 in ENE 2.0 mph 4.0 mph 91% 0.00 in 0 W/m2
04:28 40.4 °F 38.3 °F 29.63 in NE 2.0 mph 4.0 mph 92% 0.00 in 0 W/m2
04:34 40.7 °F 38.6 °F 29.62 in NE 1.0 mph 3.0 mph 92% 0.00 in 0 W/m2
04:46 41.2 °F 39.1 °F 29.60 in SE 3.0 mph 4.0 mph 92% 0.00 in 0 W/m2
04:58 42.3 °F 40.1 °F 29.59 in SE 3.0 mph 5.0 mph 92% 0.00 in 0 W/m2
05:04 42.9 °F 40.5 °F 29.58 in East 4.0 mph 5.0 mph 91% 0.00 in 0 W/m2
05:10 42.4 °F 39.7 °F 29.58 in SE 3.0 mph 3.0 mph 90% 0.00 in 0 W/m2
05:16 42.0 °F 39.0 °F 29.57 in East 2.0 mph 3.0 mph 89% 0.00 in 0 W/m2
05:22 41.8 °F 38.8 °F 29.57 in ENE 2.0 mph 6.0 mph 89% 0.00 in 0 W/m2
05:28 40.5 °F 37.5 °F 29.58 in ENE 3.0 mph 6.0 mph 89% 0.00 in 0 W/m2
05:34 39.5 °F 36.5 °F 29.58 in ENE 4.0 mph 7.0 mph 89% 0.00 in 0 W/m2
05:40 38.9 °F 35.9 °F 29.58 in ENE 2.0 mph 2.0 mph 89% 0.00 in 0 W/m2
05:46 38.7 °F 36.0 °F 29.58 in East 2.0 mph 5.0 mph 90% 0.00 in 0 W/m2
05:52 38.0 °F 35.3 °F 29.59 in East 2.0 mph 3.0 mph 90% 0.00 in 0 W/m2
05:58 37.8 °F 35.1 °F 29.58 in ENE 2.0 mph 4.0 mph 90% 0.00 in 0 W/m2
06:04 37.6 °F 34.9 °F 29.58 in ENE 2.0 mph 2.0 mph 90% 0.00 in 0 W/m2
06:10 38.1 °F 35.7 °F 29.57 in ESE 1.0 mph 1.0 mph 91% 0.00 in 0 W/m2
06:16 38.7 °F 36.3 °F 29.57 in ESE 1.0 mph 1.0 mph 91% 0.00 in 0 W/m2
06:22 39.5 °F 37.1 °F 29.58 in East 1.0 mph 2.0 mph 91% 0.00 in 0 W/m2
06:28 40.0 °F 37.9 °F 29.58 in ENE 1.0 mph 3.0 mph 92% 0.00 in 0 W/m2
06:34 40.9 °F 38.8 °F 29.60 in NE 1.0 mph 3.0 mph 92% 0.00 in 0 W/m2
06:40 41.5 °F 39.3 °F 29.60 in ENE 1.0 mph 1.0 mph 92% 0.00 in 0 W/m2
06:46 41.7 °F 39.3 °F 29.60 in SE 1.0 mph 1.0 mph 91% 0.00 in 0 W/m2
06:52 41.4 °F 39.0 °F 29.60 in West 1.0 mph 2.0 mph 91% 0.00 in 0 W/m2
06:58 41.8 °F 39.4 °F 29.61 in West 1.0 mph 2.0 mph 91% 0.00 in 0 W/m2
07:04 41.4 °F 38.7 °F 29.61 in NW 1.0 mph 6.0 mph 90% 0.00 in 0 W/m2
07:10 39.9 °F 36.9 °F 29.61 in NNW 2.0 mph 2.0 mph 89% 0.00 in 0 W/m2
07:16 39.2 °F 36.2 °F 29.61 in NNW 2.0 mph 2.0 mph 89% 0.00 in 0 W/m2
07:22 38.7 °F 35.7 °F 29.61 in NNW 2.0 mph 2.0 mph 89% 0.00 in 0 W/m2
07:28 38.4 °F 35.7 °F 29.61 in NNW 1.0 mph 2.0 mph 90% 0.00 in 0 W/m2
07:34 38.2 °F 35.5 °F 29.61 in Calm   1.0 mph 90% 0.00 in 0 W/m2
07:40 38.1 °F 35.4 °F 29.61 in Calm     90% 0.00 in 0 W/m2
07:46 37.5 °F 34.8 °F 29.60 in Calm   1.0 mph 90% 0.00 in 0 W/m2
07:52 37.1 °F 34.7 °F 29.59 in Calm   1.0 mph 91% 0.00 in 0 W/m2
07:58 37.1 °F 34.7 °F 29.59 in Calm   2.0 mph 91% 0.00 in 5 W/m2
08:04 37.4 °F 35.0 °F 29.59 in NNW 1.0 mph 2.0 mph 91% 0.00 in 5 W/m2
08:16 37.5 °F 35.4 °F 29.59 in NNW 1.0 mph 1.0 mph 92% 0.00 in 5 W/m2
08:28 37.5 °F 35.4 °F 29.56 in NNW 1.0 mph 2.0 mph 92% 0.00 in 19 W/m2
08:34 37.4 °F 35.3 °F 29.55 in NNW 1.0 mph 1.0 mph 92% 0.00 in 16 W/m2
08:40 37.3 °F 35.2 °F 29.55 in Calm   1.0 mph 92% 0.00 in 12 W/m2
08:46 37.4 °F 35.3 °F 29.56 in Calm   1.0 mph 92% 0.00 in 11 W/m2
08:52 37.6 °F 35.5 °F 29.55 in Calm   1.0 mph 92% 0.00 in 5 W/m2
08:58 38.1 °F 36.0 °F 29.55 in ESE 1.0 mph 2.0 mph 92% 0.00 in 21 W/m2
09:04 38.8 °F 36.9 °F 29.54 in ESE 1.0 mph 3.0 mph 93% 0.00 in 28 W/m2
09:10 39.4 °F 37.5 °F 29.52 in East 2.0 mph 5.0 mph 93% 0.00 in 26 W/m2
09:16 39.8 °F 37.9 °F 29.53 in East 4.0 mph 6.0 mph 93% 0.00 in 25 W/m2
09:22 39.9 °F 38.0 °F 29.52 in ENE 3.0 mph 3.0 mph 93% 0.00 in 23 W/m2
09:28 40.0 °F 38.1 °F 29.50 in NE 2.0 mph 3.0 mph 93% 0.00 in 39 W/m2
09:34 40.2 °F 38.3 °F 29.52 in ENE 2.0 mph 3.0 mph 93% 0.00 in 46 W/m2
09:46 40.0 °F 37.9 °F 29.52 in ENE 1.0 mph 2.0 mph 92% 0.00 in 65 W/m2
09:52 40.2 °F 38.1 °F 29.53 in ENE 1.0 mph 3.0 mph 92% 0.00 in 67 W/m2
09:58 40.7 °F 38.6 °F 29.52 in ENE 1.0 mph 4.0 mph 92% 0.00 in 121 W/m2
10:04 40.9 °F 38.8 °F 29.53 in ENE 1.0 mph 1.0 mph 92% 0.00 in 105 W/m2
10:10 40.9 °F 38.8 °F 29.53 in Calm   2.0 mph 92% 0.00 in 102 W/m2
10:16 41.0 °F 38.9 °F 29.53 in Calm   2.0 mph 92% 0.00 in 120 W/m2
10:18 41.1 °F 39.0 °F 29.53 in Calm   2.0 mph 92% 0.00 in 111 W/m2
10:24 41.3 °F 39.2 °F 29.55 in Calm   1.0 mph 92% 0.00 in 65 W/m2
10:48 39.5 °F 37.1 °F 29.51 in ENE 2.0 mph 3.0 mph 91% 0.00 in 44 W/m2
10:54 39.5 °F 37.4 °F 29.52 in East 2.0 mph 2.0 mph 92% 0.00 in 58 W/m2
11:06 39.0 °F 36.9 °F 29.53 in Calm   1.0 mph 92% 0.00 in 18 W/m2
11:12 39.3 °F 37.2 °F 29.53 in Calm   1.0 mph 92% 0.00 in 16 W/m2
11:18 39.6 °F 37.5 °F 29.53 in Calm   1.0 mph 92% 0.00 in 26 W/m2
11:24 39.8 °F 37.7 °F 29.52 in Calm   2.0 mph 92% 0.00 in 44 W/m2
11:30 38.7 °F 36.6 °F 29.50 in East 1.0 mph 2.0 mph 92% 0.00 in 47 W/m2
11:36 39.0 °F 36.9 °F 29.50 in East 2.0 mph 2.0 mph 92% 0.00 in 72 W/m2
11:42 39.4 °F 37.5 °F 29.50 in ENE 1.0 mph 1.0 mph 93% 0.00 in 37 W/m2
11:54 39.9 °F 38.0 °F 29.50 in Calm   1.0 mph 93% 0.00 in 26 W/m2
12:00 39.1 °F 37.2 °F 29.49 in East 1.0 mph 1.0 mph 93% 0.00 in 23 W/m2
12:08 39.5 °F 37.6 °F 29.49 in Calm   1.0 mph 93% 0.00 in 37 W/m2
12:14 39.6 °F 37.7 °F 29.48 in Calm     93% 0.00 in 47 W/m2
12:20 39.6 °F 37.7 °F 29.47 in Calm     93% 0.00 in 105 W/m2
12:26 40.0 °F 38.1 °F 29.47 in Calm   1.0 mph 93% 0.00 in 301 W/m2
12:32 40.9 °F 39.0 °F 29.47 in Calm     93% 0.00 in 202 W/m2
12:44 43.8 °F 42.2 °F 29.47 in Calm   1.0 mph 94% 0.00 in 445 W/m2
12:50 45.4 °F 43.8 °F 29.46 in Calm     94% 0.00 in 420 W/m2
12:56 46.5 °F 44.6 °F 29.46 in Calm     93% 0.00 in 461 W/m2
13:02 49.0 °F 46.8 °F 29.45 in South 1.0 mph 4.0 mph 92% 0.00 in 508 W/m2
13:08 50.6 °F 46.3 °F 29.45 in SSW 3.0 mph 5.0 mph 85% 0.00 in 568 W/m2
13:14 50.8 °F 45.2 °F 29.44 in SSW 3.0 mph 6.0 mph 81% 0.00 in 135 W/m2
13:20 50.6 °F 44.3 °F 29.44 in SSW 3.0 mph 3.0 mph 79% 0.00 in 130 W/m2
13:26 50.4 °F 44.1 °F 29.44 in SSW 4.0 mph 4.0 mph 79% 0.00 in 248 W/m2
13:32 51.5 °F 44.5 °F 29.44 in SSW 4.0 mph 6.0 mph 77% 0.00 in 452 W/m2
13:38 52.2 °F 44.5 °F 29.44 in South 5.0 mph 6.0 mph 75% 0.00 in 448 W/m2
13:44 52.5 °F 44.1 °F 29.43 in South 5.0 mph 6.0 mph 73% 0.00 in 480 W/m2
13:56 52.3 °F 43.5 °F 29.43 in SW 5.0 mph 8.0 mph 72% 0.00 in 149 W/m2
14:02 51.9 °F 43.2 °F 29.43 in South 4.0 mph 7.0 mph 72% 0.00 in 109 W/m2
14:08 51.6 °F 42.9 °F 29.44 in SW 5.0 mph 7.0 mph 72% 0.00 in 51 W/m2
14:14 49.3 °F 41.0 °F 29.44 in West 6.0 mph 11.0 mph 73% 0.00 in 42 W/m2
14:26 47.4 °F 41.2 °F 29.44 in SSW 6.0 mph 7.0 mph 79% 0.00 in 417 W/m2
14:32 48.2 °F 41.3 °F 29.44 in WSW 5.0 mph 13.0 mph 77% 0.00 in 98 W/m2
14:38 47.4 °F 39.5 °F 29.48 in West 7.0 mph 21.0 mph 74% 0.00 in 11 W/m2
14:44 42.9 °F 36.5 °F 29.50 in West 9.0 mph 11.0 mph 78% 0.00 in 33 W/m2
14:50 41.1 °F 36.3 °F 29.50 in NW 7.0 mph 7.0 mph 83% 0.00 in 32 W/m2
15:02 40.6 °F 37.0 °F 29.52 in WNW 5.0 mph 5.0 mph 87% 0.00 in 21 W/m2
15:08 40.5 °F 36.9 °F 29.52 in West 4.0 mph 8.0 mph 87% 0.00 in 30 W/m2
15:14 40.4 °F 36.8 °F 29.52 in WSW 4.0 mph 5.0 mph 87% 0.00 in 21 W/m2
15:20 40.4 °F 36.8 °F 29.53 in WSW 4.0 mph 4.0 mph 87% 0.00 in 18 W/m2
15:26 40.4 °F 36.8 °F 29.53 in West 4.0 mph 7.0 mph 87% 0.00 in 14 W/m2
15:32 40.3 °F 36.7 °F 29.53 in WSW 4.0 mph 4.0 mph 87% 0.00 in 14 W/m2
15:38 40.2 °F 36.3 °F 29.53 in WSW 3.0 mph 4.0 mph 86% 0.00 in 21 W/m2
15:44 40.1 °F 36.2 °F 29.53 in WSW 3.0 mph 4.0 mph 86% 0.00 in 23 W/m2
15:50 40.0 °F 35.9 °F 29.52 in WSW 3.0 mph 5.0 mph 85% 0.00 in 30 W/m2
15:56 40.0 °F 35.9 °F 29.53 in West 3.0 mph 5.0 mph 85% 0.00 in 77 W/m2
16:02 40.2 °F 36.1 °F 29.53 in West 3.0 mph 6.0 mph 85% 0.00 in 91 W/m2
16:08 40.2 °F 35.8 °F 29.53 in SSW 3.0 mph 6.0 mph 84% 0.00 in 65 W/m2
16:14 40.1 °F 35.4 °F 29.54 in WSW 3.0 mph 5.0 mph 83% 0.00 in 35 W/m2
16:20 40.0 °F 35.3 °F 29.53 in WSW 3.0 mph 3.0 mph 83% 0.00 in 30 W/m2
16:26 39.9 °F 35.2 °F 29.54 in SW 2.0 mph 5.0 mph 83% 0.00 in 26 W/m2
16:32 39.8 °F 35.1 °F 29.55 in WSW 3.0 mph 3.0 mph 83% 0.00 in 21 W/m2
16:38 39.8 °F 35.1 °F 29.55 in WSW 3.0 mph 4.0 mph 83% 0.00 in 19 W/m2
16:44 39.8 °F 34.8 °F 29.55 in WSW 3.0 mph 3.0 mph 82% 0.00 in 12 W/m2
16:50 39.7 °F 34.7 °F 29.55 in WSW 2.0 mph 4.0 mph 82% 0.00 in 11 W/m2
16:56 39.6 °F 34.6 °F 29.55 in SW 3.0 mph 4.0 mph 82% 0.00 in 5 W/m2
17:02 39.5 °F 34.5 °F 29.55 in WNW 3.0 mph 3.0 mph 82% 0.00 in 0 W/m2
17:14 39.6 °F 34.2 °F 29.56 in WNW 3.0 mph 3.0 mph 81% 0.00 in 0 W/m2
17:20 39.7 °F 34.0 °F 29.56 in WNW 4.0 mph 5.0 mph 80% 0.00 in 0 W/m2
17:26 39.8 °F 33.5 °F 29.56 in West 4.0 mph 8.0 mph 78% 0.00 in 0 W/m2
17:32 39.7 °F 33.1 °F 29.57 in West 4.0 mph 5.0 mph 77% 0.00 in 0 W/m2
17:38 39.6 °F 33.0 °F 29.57 in WSW 4.0 mph 7.0 mph 77% 0.00 in 0 W/m2
17:44 39.5 °F 33.2 °F 29.57 in SSW 3.0 mph 4.0 mph 78% 0.00 in 0 W/m2
17:50 39.5 °F 32.9 °F 29.57 in SW 3.0 mph 3.0 mph 77% 0.00 in 0 W/m2
17:56 39.5 °F 32.9 °F 29.57 in SSW 4.0 mph 8.0 mph 77% 0.00 in 0 W/m2
18:02 39.4 °F 32.8 °F 29.57 in WSW 4.0 mph 4.0 mph 77% 0.00 in 0 W/m2
18:08 39.4 °F 32.8 °F 29.57 in SSW 3.0 mph 6.0 mph 77% 0.00 in 0 W/m2
18:14 39.3 °F 33.0 °F 29.57 in SSW 3.0 mph 6.0 mph 78% 0.00 in 0 W/m2
18:20 39.3 °F 33.0 °F 29.57 in WSW 3.0 mph 4.0 mph 78% 0.00 in 0 W/m2
18:26 39.3 °F 32.7 °F 29.58 in WSW 3.0 mph 4.0 mph 77% 0.00 in 0 W/m2
18:32 39.3 °F 32.7 °F 29.58 in West 4.0 mph 4.0 mph 77% 0.00 in 0 W/m2
18:44 39.4 °F 32.5 °F 29.58 in West 4.0 mph 9.0 mph 76% 0.00 in 0 W/m2
18:50 39.6 °F 32.3 °F 29.58 in SW 5.0 mph 5.0 mph 75% 0.00 in 0 W/m2
19:02 39.6 °F 32.3 °F 29.58 in West 4.0 mph 4.0 mph 75% 0.00 in 0 W/m2
19:08 39.5 °F 32.2 °F 29.58 in SW 3.0 mph 4.0 mph 75% 0.00 in 0 W/m2
19:14 39.6 °F 32.3 °F 29.58 in SW 4.0 mph 8.0 mph 75% 0.00 in 0 W/m2
19:26 39.6 °F 32.3 °F 29.58 in WSW 4.0 mph 4.0 mph 75% 0.00 in 0 W/m2
19:32 39.5 °F 32.2 °F 29.58 in WSW 3.0 mph 4.0 mph 75% 0.00 in 0 W/m2
19:38 39.4 °F 32.1 °F 29.58 in SW 2.0 mph 4.0 mph 75% 0.00 in 0 W/m2
19:44 39.4 °F 32.1 °F 29.58 in West 3.0 mph 3.0 mph 75% 0.00 in 0 W/m2
19:50 39.5 °F 32.2 °F 29.58 in WSW 3.0 mph 5.0 mph 75% 0.00 in 0 W/m2
19:56 39.6 °F 32.0 °F 29.59 in SSW 4.0 mph 7.0 mph 74% 0.00 in 0 W/m2
20:02 39.8 °F 32.2 °F 29.59 in West 5.0 mph 5.0 mph 74% 0.00 in 0 W/m2
20:08 39.7 °F 32.1 °F 29.59 in WSW 4.0 mph 5.0 mph 74% 0.00 in 0 W/m2
20:14 39.5 °F 32.2 °F 29.59 in West 4.0 mph 4.0 mph 75% 0.00 in 0 W/m2
20:20 39.3 °F 32.4 °F 29.59 in West 3.0 mph 3.0 mph 76% 0.00 in 0 W/m2
20:26 39.1 °F 32.5 °F 29.59 in WSW 4.0 mph 4.0 mph 77% 0.00 in 0 W/m2
20:32 38.8 °F 32.5 °F 29.59 in West 3.0 mph 7.0 mph 78% 0.00 in 0 W/m2
20:44 38.3 °F 32.7 °F 29.60 in SW 4.0 mph 8.0 mph 80% 0.00 in 0 W/m2
20:50 38.2 °F 32.9 °F 29.60 in SW 5.0 mph 5.0 mph 81% 0.00 in 0 W/m2
20:56 38.0 °F 32.7 °F 29.59 in WSW 4.0 mph 13.0 mph 81% 0.00 in 0 W/m2
21:02 38.1 °F 32.8 °F 29.59 in SW 5.0 mph 9.0 mph 81% 0.00 in 0 W/m2
21:08 38.1 °F 32.8 °F 29.60 in SSW 4.0 mph 9.0 mph 81% 0.00 in 0 W/m2
21:14 37.9 °F 32.9 °F 29.60 in WSW 4.0 mph 6.0 mph 82% 0.00 in 0 W/m2
21:26 37.7 °F 33.0 °F 29.60 in WSW 5.0 mph 6.0 mph 83% 0.00 in 0 W/m2
21:32 37.5 °F 32.8 °F 29.60 in WSW 4.0 mph 7.0 mph 83% 0.00 in 0 W/m2
21:38 37.7 °F 33.0 °F 29.60 in WSW 5.0 mph 7.0 mph 83% 0.00 in 0 W/m2
21:44 37.6 °F 32.6 °F 29.60 in WSW 6.0 mph 11.0 mph 82% 0.00 in 0 W/m2
21:56 37.4 °F 32.4 °F 29.60 in WSW 5.0 mph 7.0 mph 82% 0.00 in 0 W/m2
22:02 37.4 °F 32.4 °F 29.60 in WNW 6.0 mph 13.0 mph 82% 0.00 in 0 W/m2
22:08 37.5 °F 32.2 °F 29.61 in SW 7.0 mph 13.0 mph 81% 0.00 in 0 W/m2
22:20 37.6 °F 31.7 °F 29.61 in WSW 6.0 mph 10.0 mph 79% 0.00 in 0 W/m2
22:26 37.6 °F 31.4 °F 29.61 in SW 7.0 mph 15.0 mph 78% 0.00 in 0 W/m2
22:32 37.5 °F 31.3 °F 29.61 in West 7.0 mph 9.0 mph 78% 0.00 in 0 W/m2
22:38 37.4 °F 31.2 °F 29.61 in West 6.0 mph 9.0 mph 78% 0.00 in 0 W/m2
22:44 37.3 °F 31.1 °F 29.62 in SW 5.0 mph 10.0 mph 78% 0.00 in 0 W/m2
22:50 37.3 °F 31.1 °F 29.62 in WNW 6.0 mph 8.0 mph 78% 0.00 in 0 W/m2
22:56 37.2 °F 31.0 °F 29.63 in West 6.0 mph 8.0 mph 78% 0.00 in 0 W/m2
23:02 37.1 °F 30.9 °F 29.63 in West 5.0 mph 13.0 mph 78% 0.00 in 0 W/m2
23:08 37.1 °F 30.9 °F 29.63 in WSW 6.0 mph 13.0 mph 78% 0.00 in 0 W/m2
23:14 37.1 °F 30.9 °F 29.63 in WNW 6.0 mph 8.0 mph 78% 0.00 in 0 W/m2
23:20 36.9 °F 30.7 °F 29.64 in WSW 5.0 mph 7.0 mph 78% 0.00 in 0 W/m2
23:26 34.6 °F 29.4 °F 29.65 in NW 7.0 mph 8.0 mph 81% 0.00 in 0 W/m2
23:32 33.2 °F 29.2 °F 29.66 in West 7.0 mph 7.0 mph 85% 0.00 in 0 W/m2
23:38 32.7 °F 29.3 °F 29.66 in WNW 6.0 mph 12.0 mph 87% 0.00 in 0 W/m2
23:44 32.5 °F 29.3 °F 29.66 in West 7.0 mph 12.0 mph 88% 0.00 in 0 W/m2
23:50 32.4 °F 29.5 °F 29.67 in West 7.0 mph 7.0 mph 89% 0.00 in 0 W/m2
23:56 32.4 °F 29.5 °F 29.67 in WNW 6.0 mph 8.0 mph 89% 0.00 in 0 W/m2
Country Meadow, Clay, NY, USA
Compliments of Weather Underground - 2 mb